Time;durP1;ratioP1;P1;durP2;ratioP2;P2;SDS_P1;SDS_P2;PMS_P1;PMS_P2;Temp;Humidity;BMP_temperature;BMP_pressure;BME280_temperature;BME280_humidity;BME280_pressure;Samples;Min_cycle;Max_cycle;Signal;HPM_P1;HPM_P2
2021/01/22 00:02:01;;;;;;;1.92;1.13;;;;;;;3.41;91.76;93557.66;5050798;28;20049;-83
2021/01/22 00:04:27;;;;;;;;;;;;;;;3.45;91.57;93558.94;5051084;28;20049;-82
2021/01/22 00:06:54;;;;;;;2.47;0.90;;;;;;;3.40;91.11;93546.72;5054491;28;20498;-82
2021/01/22 00:09:21;;;;;;;2.85;1.45;;;;;;;3.38;90.90;93546.06;5070568;28;20564;-82
2021/01/22 00:11:47;;;;;;;4.50;2.08;;;;;;;3.42;91.92;93549.13;5070507;28;20049;-82
2021/01/22 00:14:13;;;;;;;3.20;1.67;;;;;;;3.45;92.06;93553.84;5070323;28;20044;-82
2021/01/22 00:16:40;;;;;;;16.08;6.53;;;;;;;3.51;91.28;93563.38;5070441;28;20055;-82
2021/01/22 00:19:06;;;;;;;6.35;2.00;;;;;;;3.53;91.18;93556.44;5070691;28;20049;-82
2021/01/22 00:21:33;;;;;;;18.42;5.63;;;;;;;3.56;91.54;93562.94;5070554;28;20517;-82
2021/01/22 00:23:59;;;;;;;9.38;3.35;;;;;;;3.44;91.00;93558.16;5070400;28;20049;-82
2021/01/22 00:26:26;;;;;;;8.25;2.78;;;;;;;3.45;91.12;93566.56;5070920;28;20045;-82
2021/01/22 00:28:52;;;;;;;9.20;2.45;;;;;;;3.37;91.51;93566.56;5070166;28;20094;-83
2021/01/22 00:31:18;;;;;;;4.30;1.65;;;;;;;3.23;91.99;93573.81;5070268;28;20546;-82
2021/01/22 00:33:45;;;;;;;2.58;1.48;;;;;;;3.24;91.99;93564.47;5070439;28;20048;-82
2021/01/22 00:36:12;;;;;;;8.98;2.67;;;;;;;3.33;92.39;93564.31;5070179;28;20048;-82
2021/01/22 00:38:38;;;;;;;5.00;2.22;;;;;;;3.37;92.33;93572.41;5070287;28;20052;-82
2021/01/22 00:41:04;;;;;;;;;;;;;;;3.35;91.17;93576.88;5072672;28;20408;-83
2021/01/22 00:43:30;;;;;;;5.35;1.50;;;;;;;3.28;91.32;93570.84;5073918;28;19920;-83
2021/01/22 00:45:56;;;;;;;4.75;2.25;;;;;;;3.15;91.74;93571.28;5074054;28;20117;-82
2021/01/22 00:48:22;;;;;;;;;;;;;;;3.06;92.20;93571.22;5074553;28;20412;-82
2021/01/22 00:50:49;;;;;;;3.95;1.58;;;;;;;3.01;91.78;93559.97;5073907;28;19921;-82
2021/01/22 00:53:16;;;;;;;4.50;1.15;;;;;;;2.99;92.73;93559.31;5073880;28;20109;-82
2021/01/22 00:55:42;;;;;;;;;;;;;;;2.96;92.96;93554.56;5074012;28;20044;-83
2021/01/22 00:58:08;;;;;;;4.63;1.60;;;;;;;2.85;93.06;93548.00;5073730;28;20426;-82
2021/01/22 01:00:34;;;;;;;4.05;1.90;;;;;;;2.87;94.78;93556.28;5058336;28;20057;-83
2021/01/22 01:03:00;;;;;;;4.28;1.85;;;;;;;2.84;94.20;93546.41;5073605;28;20508;-83
2021/01/22 01:05:26;;;;;;;4.82;2.30;;;;;;;2.88;94.22;93545.94;5073083;28;20056;-83
2021/01/22 01:07:53;;;;;;;;;;;;;;;2.92;94.37;93544.72;5074108;28;20048;-83
2021/01/22 01:10:20;;;;;;;7.80;3.55;;;;;;;2.89;94.71;93539.97;5073294;28;19924;-82
2021/01/22 01:12:46;;;;;;;8.63;3.85;;;;;;;2.92;94.41;93533.78;5073116;28;20053;-83
2021/01/22 01:15:12;;;;;;;;;;;;;;;3.01;94.61;93529.50;5074072;28;20466;-83
2021/01/22 01:17:38;;;;;;;9.40;3.40;;;;;;;2.93;93.94;93522.69;5073462;28;19924;-83
2021/01/22 01:20:05;;;;;;;10.40;4.35;;;;;;;2.86;94.12;93521.72;5073333;28;20409;-83
2021/01/22 01:22:32;;;;;;;3.30;1.73;;;;;;;2.89;95.16;93521.38;5073345;28;20048;-83
2021/01/22 01:24:59;;;;;;;6.53;2.50;;;;;;;2.87;93.85;93518.22;5072988;28;20052;-84
2021/01/22 01:27:25;;;;;;;12.98;7.05;;;;;;;2.84;93.69;93514.25;5073585;28;20052;-83
2021/01/22 01:29:51;;;;;;;5.18;2.67;;;;;;;2.85;93.92;93513.28;5073082;28;20045;-84
2021/01/22 01:32:17;;;;;;;5.40;3.15;;;;;;;2.82;93.91;93510.28;5073236;28;20102;-83
2021/01/22 01:34:44;;;;;;;11.57;3.50;;;;;;;2.71;94.90;93503.72;5073222;28;20432;-83
2021/01/22 01:37:10;;;;;;;6.13;2.92;;;;;;;2.69;95.03;93498.03;5073083;28;20045;-83
2021/01/22 01:39:36;;;;;;;6.43;2.75;;;;;;;2.69;95.63;93496.28;5072989;28;20416;-84
2021/01/22 01:42:04;;;;;;;5.40;2.33;;;;;;;2.70;94.80;93508.03;5073211;28;20048;-83
2021/01/22 01:44:30;;;;;;;5.85;1.90;;;;;;;2.67;94.91;93500.72;5073178;28;20455;-83
2021/01/22 01:46:56;;;;;;;4.97;2.22;;;;;;;2.59;95.67;93498.94;5072943;28;20059;-83
2021/01/22 01:49:22;;;;;;;3.10;1.67;;;;;;;2.46;96.18;93474.00;5072846;28;20071;-83
2021/01/22 01:51:49;;;;;;;4.97;1.55;;;;;;;2.53;96.81;93490.22;5072617;28;20056;-83
2021/01/22 01:54:17;;;;;;;3.75;1.58;;;;;;;2.58;95.68;93487.22;5072556;28;20481;-83
2021/01/22 01:56:44;;;;;;;1.83;1.05;;;;;;;2.50;96.33;93482.13;5072863;28;20048;-83
2021/01/22 01:59:12;;;;;;;2.75;1.25;;;;;;;2.52;97.07;93487.81;5072727;28;20045;-83
2021/01/22 02:01:40;;;;;;;2.05;1.42;;;;;;;2.50;96.64;93497.34;5072715;28;20106;-83
2021/01/22 02:04:06;;;;;;;6.25;1.67;;;;;;;2.41;98.00;93483.84;5072456;28;20055;-83
2021/01/22 02:06:32;;;;;;;3.53;1.70;;;;;;;2.20;97.34;93446.97;5072273;28;20056;-83
2021/01/22 02:09:00;;;;;;;4.10;1.70;;;;;;;2.51;97.06;93494.63;5072528;28;20049;-83
2021/01/22 02:11:27;;;;;;;2.17;1.15;;;;;;;2.51;96.59;93489.56;5072626;28;20048;-85
2021/01/22 02:13:55;;;;;;;1.75;1.15;;;;;;;2.51;96.57;93484.47;5072286;28;20055;-83
2021/01/22 02:16:23;;;;;;;4.00;2.03;;;;;;;2.52;95.81;93493.69;5072390;28;20513;-83
2021/01/22 02:18:53;;;;;;;2.83;1.73;;;;;;;2.54;96.14;93488.44;5088751;28;20047;-84
2021/01/22 02:21:25;;;;;;;3.53;2.05;;;;;;;2.47;96.24;93490.81;5092237;28;20515;-83
2021/01/22 02:23:55;;;;;;;2.97;1.58;;;;;;;2.43;95.82;93488.72;5092481;28;20051;-83
2021/01/22 02:26:52;;;;;;;4.43;1.77;;;;;;;2.40;97.11;93488.09;5092261;28;20492;-83
2021/01/22 02:29:20;;;;;;;6.32;2.30;;;;;;;2.36;96.92;93486.81;5092356;28;20052;-83
2021/01/22 02:31:47;;;;;;;2.97;2.05;;;;;;;2.30;96.82;93486.63;5092062;28;20067;-83
2021/01/22 02:34:16;;;;;;;6.68;1.77;;;;;;;2.26;97.50;93470.91;5092421;28;20044;-83
2021/01/22 02:36:46;;;;;;;3.95;2.10;;;;;;;2.17;98.00;93469.31;5092375;28;20044;-83
2021/01/22 02:39:17;;;;;;;3.50;2.35;;;;;;;2.19;98.69;93467.41;5092161;28;20048;-83
2021/01/22 02:41:45;;;;;;;3.38;1.38;;;;;;;2.22;99.12;93462.03;5091904;28;20048;-83
2021/01/22 02:44:11;;;;;;;8.18;1.63;;;;;;;2.27;98.58;93457.31;5091760;28;20060;-83
2021/01/22 02:46:39;;;;;;;1.70;1.23;;;;;;;2.31;98.99;93467.94;5092180;28;20059;-83
2021/01/22 02:49:05;;;;;;;5.80;0.82;;;;;;;2.28;98.51;93471.56;5091886;28;20048;-84
2021/01/22 02:51:31;;;;;;;2.28;0.90;;;;;;;2.28;98.47;93469.03;5091904;28;20048;-82
2021/01/22 02:53:58;;;;;;;2.88;1.40;;;;;;;2.29;98.51;93470.63;5091929;28;20496;-83
2021/01/22 02:56:29;;;;;;;;;;;;;;;2.31;98.92;93463.66;5092161;28;20149;-83
2021/01/22 02:59:06;;;;;;;3.10;1.45;;;;;;;2.27;98.86;93459.84;5091323;28;19920;-83
2021/01/22 03:01:41;;;;;;;1.90;1.27;;;;;;;2.20;98.41;93448.72;5091670;28;20047;-84
2021/01/22 03:04:12;;;;;;;2.15;1.35;;;;;;;2.26;98.77;93456.50;5090878;28;20044;-83
2021/01/22 03:06:41;;;;;;;2.67;1.40;;;;;;;2.23;98.94;93466.94;5091620;28;20044;-83
2021/01/22 03:09:12;;;;;;;2.50;1.40;;;;;;;2.24;99.02;93458.41;5091481;28;20048;-82
2021/01/22 03:11:39;;;;;;;2.72;1.20;;;;;;;2.25;98.73;93461.72;5091742;28;20055;-83
2021/01/22 03:14:06;;;;;;;5.15;2.00;;;;;;;2.22;98.96;93462.81;5091411;28;20044;-84
2021/01/22 03:16:33;;;;;;;3.90;2.25;;;;;;;2.24;98.54;93467.75;5091429;28;20484;-83
2021/01/22 03:19:01;;;;;;;2.38;1.42;;;;;;;2.19;99.47;93458.06;5091533;28;20139;-83
2021/01/22 03:21:27;;;;;;;7.43;1.48;;;;;;;2.17;98.98;93462.47;5091253;28;20122;-83
2021/01/22 03:23:53;;;;;;;;;;;;;;;2.20;99.51;93458.84;5091548;28;20048;-83
2021/01/22 03:26:20;;;;;;;2.33;1.55;;;;;;;2.16;99.04;93448.22;5091264;28;19958;-83
2021/01/22 03:28:46;;;;;;;4.00;1.65;;;;;;;2.28;99.32;93458.91;5091375;28;20093;-82
2021/01/22 03:31:14;;;;;;;3.92;2.08;;;;;;;2.26;98.87;93464.13;5091378;28;20055;-83
2021/01/22 03:33:40;;;;;;;3.20;1.55;;;;;;;2.30;99.04;93462.06;5091074;28;20044;-84
2021/01/22 03:36:07;;;;;;;3.38;1.65;;;;;;;2.22;99.09;93451.91;5091035;28;20063;-83
2021/01/22 03:38:33;;;;;;;4.85;1.63;;;;;;;2.22;99.82;93451.91;5091227;28;20125;-83
2021/01/22 03:41:00;;;;;;;1.77;1.13;;;;;;;2.25;99.52;93454.94;5091234;28;20055;-83
2021/01/22 03:43:26;;;;;;;;;;;;;;;2.22;99.14;93455.22;5091636;28;20044;-84
2021/01/22 03:45:52;;;;;;;2.08;1.35;;;;;;;2.07;99.98;93449.94;5090788;28;19920;-83
2021/01/22 03:48:20;;;;;;;3.78;1.63;;;;;;;2.09;99.86;93445.50;5090895;28;20044;-83
2021/01/22 03:50:46;;;;;;;1.85;1.10;;;;;;;2.18;100.00;93456.47;5090597;28;20508;-84
2021/01/22 03:53:12;;;;;;;;;;;;;;;2.23;100.00;93461.88;5091536;28;20563;-83
2021/01/22 03:55:39;;;;;;;4.32;1.80;;;;;;;2.23;100.00;93463.63;5086236;28;19931;-86
2021/01/22 03:58:05;;;;;;;5.57;2.58;;;;;;;2.19;100.00;93465.69;5070645;28;20044;-84
2021/01/22 04:00:31;;;;;;;5.15;1.98;;;;;;;2.27;100.00;93472.53;5070748;28;20181;-84
2021/01/22 04:02:58;;;;;;;2.08;1.20;;;;;;;2.26;100.00;93469.19;5070677;28;20064;-84
2021/01/22 04:05:24;;;;;;;;;;;;;;;2.27;99.64;93465.69;5070891;28;20073;-84
2021/01/22 04:07:51;;;;;;;4.10;1.63;;;;;;;2.26;100.00;93465.84;5070736;28;19925;-84
2021/01/22 04:10:17;;;;;;;;;;;;;;;2.26;100.00;93463.31;5070972;28;20052;-84
2021/01/22 04:12:43;;;;;;;1.77;1.05;;;;;;;2.26;100.00;93465.84;5070497;28;19927;-83
2021/01/22 04:15:10;;;;;;;;;;;;;;;2.26;100.00;93463.31;5073327;28;20089;-84
2021/01/22 04:17:36;;;;;;;3.38;1.50;;;;;;;2.22;100.00;93450.16;5074548;28;20026;-85
2021/01/22 04:20:03;;;;;;;3.58;1.30;;;;;;;2.27;100.00;93452.25;5074432;28;20045;-84
2021/01/22 04:22:30;;;;;;;3.10;1.85;;;;;;;2.29;100.00;93444.47;5074599;28;20090;-84
2021/01/22 04:24:57;;;;;;;6.28;2.15;;;;;;;2.28;100.00;93448.75;5074416;28;20067;-84
2021/01/22 04:27:23;;;;;;;;;;;;;;;2.31;100.00;93448.44;5074917;28;20045;-82
2021/01/22 04:29:49;;;;;;;3.60;1.90;;;;;;;2.27;100.00;93440.34;5074238;28;19943;-83
2021/01/22 04:32:15;;;;;;;5.03;1.95;;;;;;;2.29;100.00;93431.78;5074296;28;20060;-84
2021/01/22 04:34:41;;;;;;;;;;;;;;;2.41;100.00;93445.81;5074533;28;20063;-84
2021/01/22 04:37:07;;;;;;;4.85;2.10;;;;;;;2.38;100.00;93449.44;5074365;28;20369;-84
2021/01/22 04:39:36;;;;;;;9.27;3.63;;;;;;;2.50;100.00;93449.94;5074335;28;20044;-84
2021/01/22 04:42:04;;;;;;;8.38;2.95;;;;;;;2.51;100.00;93445.66;5074279;28;20471;-84
2021/01/22 04:44:30;;;;;;;4.47;1.88;;;;;;;2.53;100.00;93442.03;5073946;28;20055;-84
2021/01/22 04:46:57;;;;;;;;;;;;;;;2.52;100.00;93442.97;5074396;28;20057;-83
2021/01/22 04:49:25;;;;;;;5.07;2.55;;;;;;;2.48;100.00;93433.28;5073827;28;19931;-85
2021/01/22 04:51:55;;;;;;;5.47;2.58;;;;;;;2.45;100.00;93441.22;5073968;28;20420;-83
2021/01/22 04:54:27;;;;;;;6.28;2.05;;;;;;;2.45;100.00;93443.75;5073903;28;20511;-84
2021/01/22 04:56:59;;;;;;;6.15;2.40;;;;;;;2.48;100.00;93439.16;5073719;28;20048;-83
2021/01/22 04:59:30;;;;;;;4.70;2.53;;;;;;;2.44;100.00;93430.28;5073777;28;20052;-84
2021/01/22 05:01:57;;;;;;;7.13;3.10;;;;;;;2.57;100.00;93439.16;5073902;28;20048;-84
2021/01/22 05:04:23;;;;;;;6.00;2.28;;;;;;;2.52;100.00;93442.97;5073533;28;20052;-84
2021/01/22 05:06:50;;;;;;;7.55;4.38;;;;;;;2.57;100.00;93434.91;5073822;28;20060;-84
2021/01/22 05:09:17;;;;;;;6.13;1.90;;;;;;;2.63;100.00;93438.56;5073755;28;20044;-86
2021/01/22 05:11:43;;;;;;;6.57;2.85;;;;;;;2.75;100.00;93436.53;5073563;28;20049;-86
2021/01/22 05:14:10;;;;;;;;;;;;;;;2.81;100.00;93440.97;5073866;28;20041;-83
2021/01/22 05:16:36;;;;;;;4.72;2.38;;;;;;;2.88;100.00;93448.75;5073644;28;19924;-86
2021/01/22 05:19:19;;;;;;;;;;;;;;;2.92;100.00;93450.81;5073787;28;20390;-86
2021/01/22 05:21:45;;;;;;;3.40;1.60;;;;;;;2.79;100.00;93440.34;5073385;28;19947;-86
2021/01/22 05:24:19;;;;;;;4.50;1.90;;;;;;;2.77;100.00;93454.91;5073295;28;20049;-84
2021/01/22 05:26:46;;;;;;;4.85;2.63;;;;;;;2.68;100.00;93433.81;5072250;28;20049;-84
2021/01/22 05:29:16;;;;;;;;;;;;;;;2.75;100.00;93447.47;5073724;28;20512;-84
2021/01/22 05:31:42;;;;;;;3.03;1.95;;;;;;;2.80;100.00;93445.28;5073289;28;19927;-84
2021/01/22 05:34:08;;;;;;;;;;;;;;;2.92;100.00;93442.44;5073531;28;20070;-85
2021/01/22 05:36:35;;;;;;;2.70;1.35;;;;;;;2.91;100.00;93444.16;5073465;28;19925;-85
2021/01/22 05:39:03;;;;;;;8.30;2.47;;;;;;;2.92;100.00;93430.53;5072969;28;20041;-85
2021/01/22 05:41:30;;;;;;;2.97;1.58;;;;;;;3.05;100.00;93436.88;5073126;28;20052;-85
2021/01/22 05:43:57;;;;;;;3.80;1.67;;;;;;;3.17;100.00;93437.38;5072875;28;20057;-83
2021/01/22 05:46:26;;;;;;;3.00;1.73;;;;;;;3.27;100.00;93430.38;5072739;28;20623;-85
2021/01/22 05:49:06;;;;;;;3.00;1.60;;;;;;;3.29;100.00;93437.84;5072924;28;20044;-85
2021/01/22 05:51:33;;;;;;;1.90;0.90;;;;;;;3.43;100.00;93433.88;5072918;28;20409;-85
2021/01/22 05:54:00;;;;;;;2.65;1.55;;;;;;;3.54;100.00;93446.25;5073002;28;20056;-85
2021/01/22 05:56:26;;;;;;;3.08;1.52;;;;;;;3.67;99.63;93452.56;5072876;28;20045;-84
2021/01/22 05:58:52;;;;;;;;;;;;;;;3.73;98.88;93454.47;5073269;28;20052;-85
2021/01/22 06:01:20;;;;;;;1.20;0.70;;;;;;;3.68;99.14;93459.25;5072735;28;19931;-85
2021/01/22 06:03:48;;;;;;;2.25;1.92;;;;;;;3.68;99.45;93452.44;5072669;28;20070;-84
2021/01/22 06:06:14;;;;;;;1.27;0.77;;;;;;;3.73;99.06;93437.50;5072298;28;20497;-84
2021/01/22 06:08:52;;;;;;;4.63;1.58;;;;;;;3.81;99.06;93446.03;5072658;28;20049;-84
2021/01/22 06:11:20;;;;;;;3.45;1.77;;;;;;;3.69;98.45;93422.72;5072560;28;20044;-85
2021/01/22 06:13:48;;;;;;;3.95;1.77;;;;;;;3.85;98.25;93432.06;5072967;28;20044;-82
2021/01/22 06:16:16;;;;;;;1.20;0.77;;;;;;;3.89;98.16;93440.94;5072401;28;20089;-83
2021/01/22 06:18:48;;;;;;;2.45;1.33;;;;;;;3.96;98.12;93421.56;5072108;28;20048;-83
2021/01/22 06:21:17;;;;;;;3.80;1.38;;;;;;;4.03;97.91;93416.59;5072481;28;20045;-84
2021/01/22 06:23:46;;;;;;;12.68;1.70;;;;;;;4.13;97.32;93422.28;5072145;28;20489;-83
2021/01/22 06:26:13;;;;;;;6.63;1.73;;;;;;;4.17;96.76;93416.88;5072150;28;20044;-84
2021/01/22 06:28:40;;;;;;;3.30;1.38;;;;;;;4.26;97.09;93424.31;5072085;28;20052;-84
2021/01/22 06:31:09;;;;;;;6.82;2.20;;;;;;;4.26;96.32;93414.13;5071831;28;20102;-84
2021/01/22 06:33:36;;;;;;;3.63;1.80;;;;;;;4.36;96.38;93421.56;5072128;28;20064;-85
2021/01/22 06:36:05;;;;;;;1.83;0.77;;;;;;;4.45;95.91;93412.16;5072079;28;20478;-84
2021/01/22 06:38:31;;;;;;;2.03;0.88;;;;;;;4.51;95.43;93420.84;5072303;28;20484;-85
2021/01/22 06:40:57;;;;;;;;;;;;;;;4.47;95.46;93422.16;5072365;28;20048;-84
2021/01/22 06:43:24;;;;;;;2.70;1.20;;;;;;;4.46;95.59;93406.09;5071760;28;19958;-84
2021/01/22 06:45:50;;;;;;;;;;;;;;;4.51;95.22;93411.50;5071996;28;20052;-84
2021/01/22 06:48:16;;;;;;;2.60;1.27;;;;;;;4.61;95.52;93407.91;5071590;28;19920;-84
2021/01/22 06:50:42;;;;;;;;;;;;;;;4.70;94.81;93416.28;5072220;28;20063;-85
2021/01/22 06:53:11;;;;;;;2.28;1.10;;;;;;;4.66;94.94;93415.84;5071702;28;19927;-85
2021/01/22 06:56:11;;;;;;;4.22;1.25;;;;;;;4.73;94.28;93410.88;5071984;28;20094;-85
2021/01/22 06:58:37;;;;;;;3.90;2.38;;;;;;;4.76;94.21;93403.69;5066744;28;20139;-85
2021/01/22 07:01:31;;;;;;;3.58;1.60;;;;;;;4.81;94.64;93405.72;5071392;28;20440;-84
2021/01/22 07:03:58;;;;;;;3.75;2.08;;;;;;;4.86;93.41;93405.25;5071342;28;20053;-85
2021/01/22 07:06:51;;;;;;;5.18;1.77;;;;;;;4.91;94.30;93402.97;5071278;28;20048;-84
2021/01/22 07:09:19;;;;;;;4.57;1.60;;;;;;;4.91;93.79;93405.53;5071425;28;20083;-85
2021/01/22 07:11:58;;;;;;;19.27;10.55;;;;;;;4.98;94.31;93410.72;5071273;28;20451;-85
2021/01/22 07:14:39;;;;;;;14.80;7.57;;;;;;;5.06;93.89;93400.50;5071422;28;20044;-85
2021/01/22 07:17:15;;;;;;;3.42;2.15;;;;;;;5.07;92.81;93395.22;5071104;28;20488;-84
2021/01/22 07:19:48;;;;;;;4.15;2.00;;;;;;;5.15;93.71;93404.56;5071113;28;20059;-85
2021/01/22 07:22:15;;;;;;;7.57;3.50;;;;;;;5.17;92.63;93391.63;5071153;28;20048;-85
2021/01/22 07:24:46;;;;;;;8.27;3.42;;;;;;;5.40;92.11;93394.16;5070996;28;20055;-85
2021/01/22 07:27:13;;;;;;;4.80;3.28;;;;;;;5.45;91.37;93396.19;5071015;28;20121;-85
2021/01/22 07:29:40;;;;;;;17.00;5.85;;;;;;;5.48;91.67;93395.84;5070913;28;20080;-85
2021/01/22 07:32:06;;;;;;;8.57;5.40;;;;;;;5.63;90.82;93398.41;5071335;28;20048;-87
2021/01/22 07:34:49;;;;;;;16.88;7.28;;;;;;;5.71;90.54;93392.44;5071109;28;20477;-85
2021/01/22 07:37:18;;;;;;;11.73;5.78;;;;;;;5.80;89.58;93396.50;5070829;28;20154;-85
2021/01/22 07:39:46;;;;;;;11.15;5.15;;;;;;;5.79;90.17;93399.22;5070940;28;20048;-85
2021/01/22 07:42:13;;;;;;;10.68;4.63;;;;;;;5.81;90.59;93382.78;5070712;28;20045;-85
2021/01/22 07:44:41;;;;;;;6.55;2.58;;;;;;;5.91;89.61;93385.06;5070675;28;20056;-85
2021/01/22 07:47:09;;;;;;;3.50;2.35;;;;;;;5.86;90.04;93377.94;5071000;28;20052;-85
2021/01/22 07:49:50;;;;;;;5.18;1.88;;;;;;;5.81;89.66;93374.34;5070608;28;20056;-85
2021/01/22 07:52:17;;;;;;;6.32;3.65;;;;;;;5.82;90.80;93371.63;5070670;28;20056;-85
2021/01/22 07:54:43;;;;;;;;;;;;;;;5.77;91.24;93370.53;5071075;28;20044;-85
2021/01/22 07:57:15;;;;;;;13.43;7.07;;;;;;;5.70;91.51;93375.56;5070780;28;19966;-85
2021/01/22 07:59:42;;;;;;;11.73;6.53;;;;;;;5.69;91.13;93367.13;5070819;28;20040;-85
2021/01/22 08:02:12;;;;;;;8.43;3.58;;;;;;;5.68;91.46;93377.50;5070809;28;20048;-85
2021/01/22 08:04:38;;;;;;;7.38;2.95;;;;;;;5.70;91.47;93371.25;5070369;28;20060;-85
2021/01/22 08:07:05;;;;;;;11.45;5.03;;;;;;;5.77;91.26;93373.91;5070467;28;20408;-85
2021/01/22 08:09:31;;;;;;;10.23;4.50;;;;;;;5.80;nan;93373.56;5070563;28;20119;-85
2021/01/22 08:12:08;;;;;;;9.40;3.88;;;;;;;5.78;90.95;93370.38;5070812;28;20049;-85
2021/01/22 08:14:35;;;;;;;8.25;3.67;;;;;;;5.79;90.92;93368.63;5070707;28;20553;-85
2021/01/22 08:17:03;;;;;;;20.15;7.28;;;;;;;5.83;90.97;93362.22;5070572;28;20049;-86
2021/01/22 08:19:29;;;;;;;11.70;5.25;;;;;;;5.99;90.36;93372.25;5070378;28;20052;-85
2021/01/22 08:21:56;;;;;;;;;;;;;;;6.10;89.99;93367.66;5071399;28;20041;-84
2021/01/22 08:24:23;;;;;;;63.70;21.77;;;;;;;6.14;90.04;93359.50;5070633;28;19966;-86
2021/01/22 08:26:56;;;;;;;27.80;11.50;;;;;;;6.17;89.91;93366.00;5070550;28;20406;-85
2021/01/22 08:29:23;;;;;;;18.85;8.00;;;;;;;6.11;89.79;93344.53;5070386;28;20041;-85
2021/01/22 08:31:50;;;;;;;8.10;4.53;;;;;;;6.24;89.59;93360.97;5070350;28;20056;-86
2021/01/22 08:34:17;;;;;;;7.47;3.20;;;;;;;6.21;90.13;93353.69;5070239;28;20044;-87
2021/01/22 08:36:44;;;;;;;5.82;2.65;;;;;;;6.16;89.80;93356.78;5070546;28;20045;-85
2021/01/22 08:39:10;;;;;;;8.73;2.38;;;;;;;6.08;89.93;93342.34;5070555;28;20801;-86
2021/01/22 08:41:36;;;;;;;6.03;2.40;;;;;;;6.10;90.03;93348.06;5070483;28;20044;-86
2021/01/22 08:44:02;;;;;;;13.55;4.43;;;;;;;6.19;90.12;93332.63;5070228;28;20542;-86
2021/01/22 08:46:28;;;;;;;7.53;3.60;;;;;;;6.20;90.11;93339.34;5070099;28;20044;-85
2021/01/22 08:48:55;;;;;;;;;;;;;;;6.23;90.14;93342.31;5070581;28;20412;-86
2021/01/22 08:51:28;;;;;;;5.35;2.38;;;;;;;6.17;90.14;93326.94;5070122;28;19921;-86
2021/01/22 08:53:55;;;;;;;15.60;5.28;;;;;;;6.27;90.35;93345.31;5070258;28;20506;-87
2021/01/22 08:56:22;;;;;;;11.25;3.97;;;;;;;6.28;89.97;93329.81;5070181;28;20046;-86
2021/01/22 08:59:06;;;;;;;10.73;3.15;;;;;;;6.50;89.32;93334.97;5070002;28;20608;-86
2021/01/22 09:01:52;;;;;;;6.00;2.85;;;;;;;6.59;89.39;93345.84;5071391;28;20064;-86
2021/01/22 09:04:27;;;;;;;8.60;4.90;;;;;;;6.63;89.06;93338.59;5073744;28;20049;-86
2021/01/22 09:06:55;;;;;;;6.20;3.63;;;;;;;6.84;88.78;93342.13;5073588;28;20454;-87
2021/01/22 09:09:41;;;;;;;9.40;3.35;;;;;;;6.99;88.14;93339.50;5074041;28;20052;-85
2021/01/22 09:12:29;;;;;;;7.63;3.63;;;;;;;7.06;87.73;93336.03;5073105;28;20497;-86
2021/01/22 09:14:57;;;;;;;4.90;2.83;;;;;;;7.16;87.24;93343.38;5068797;28;20131;-86
2021/01/22 09:17:35;;;;;;;10.15;3.78;;;;;;;7.32;86.81;93332.09;5073447;28;20048;-86
2021/01/22 09:20:06;;;;;;;5.07;1.80;;;;;;;7.42;85.72;93333.53;5073242;28;20136;-85
2021/01/22 09:22:33;;;;;;;4.28;2.25;;;;;;;7.42;86.28;93334.34;5073277;28;20083;-85
2021/01/22 09:25:00;;;;;;;3.65;1.48;;;;;;;7.38;85.99;93324.66;5073467;28;20400;-85
2021/01/22 09:27:27;;;;;;;5.55;2.08;;;;;;;7.40;86.04;93320.94;5073205;28;20463;-87
2021/01/22 09:29:53;;;;;;;6.35;2.53;;;;;;;7.43;86.01;93319.78;5073325;28;20052;-89
2021/01/22 09:32:20;;;;;;;6.53;2.35;;;;;;;7.48;85.72;93310.59;5073220;28;20044;-87
2021/01/22 09:34:46;;;;;;;7.53;2.67;;;;;;;7.32;85.60;93308.31;5072996;28;20059;-87
2021/01/22 09:37:13;;;;;;;4.43;1.83;;;;;;;7.47;85.38;93311.56;5073235;28;20045;-89
2021/01/22 09:39:39;;;;;;;8.93;2.22;;;;;;;7.45;85.45;93308.38;5073024;28;20053;-88
2021/01/22 09:42:05;;;;;;;;;;;;;;;7.43;85.72;93305.25;5073498;28;20053;-87
2021/01/22 09:44:32;;;;;;;6.32;2.85;;;;;;;7.40;86.00;93308.16;5073120;28;19921;-87
2021/01/22 09:46:58;;;;;;;5.28;1.60;;;;;;;7.43;85.40;93302.69;5072922;28;20057;-87
2021/01/22 09:49:24;;;;;;;7.63;3.28;;;;;;;7.45;85.84;93305.06;5072796;28;20420;-87
2021/01/22 09:51:50;;;;;;;5.57;2.47;;;;;;;7.48;85.97;93294.44;5072775;28;20060;-88
2021/01/22 09:54:17;;;;;;;10.23;3.95;;;;;;;7.68;85.14;93304.00;5072903;28;20048;-88
2021/01/22 09:56:44;;;;;;;14.70;5.22;;;;;;;7.73;85.29;93307.56;5072747;28;20618;-88
2021/01/22 09:59:10;;;;;;;13.20;4.57;;;;;;;7.83;84.44;93296.97;5072802;28;20640;-87
2021/01/22 10:01:37;;;;;;;9.65;3.70;;;;;;;7.93;84.13;93301.75;5072522;28;20056;-88
2021/01/22 10:04:04;;;;;;;4.22;1.90;;;;;;;8.01;83.68;93308.47;5072631;28;20106;-88
2021/01/22 10:06:31;;;;;;;7.35;3.17;;;;;;;8.14;83.46;93303.41;5072551;28;20044;-88
2021/01/22 10:08:58;;;;;;;7.57;3.88;;;;;;;8.27;82.51;93299.28;5072486;28;20044;-88
2021/01/22 10:11:25;;;;;;;11.95;3.85;;;;;;;8.37;82.56;93301.47;5072415;28;20044;-87
2021/01/22 10:13:55;;;;;;;9.35;2.88;;;;;;;8.35;81.82;93288.91;5072199;28;20384;-88
2021/01/22 10:16:23;;;;;;;13.05;4.38;;;;;;;8.38;81.61;93285.94;5072229;28;20048;-88
2021/01/22 10:18:50;;;;;;;16.83;5.80;;;;;;;8.43;82.27;93287.94;5072394;28;20056;-88
2021/01/22 10:21:18;;;;;;;10.57;4.15;;;;;;;8.39;82.09;93287.50;5072374;28;20041;-88
2021/01/22 10:23:45;;;;;;;8.30;3.35;;;;;;;8.45;81.35;93283.41;5072115;28;20223;-89
2021/01/22 10:26:12;;;;;;;11.70;3.03;;;;;;;8.51;81.39;93277.50;5072045;28;20056;-87
2021/01/22 10:28:39;;;;;;;4.60;2.47;;;;;;;8.58;81.21;93281.84;5072018;28;20092;-88
2021/01/22 10:31:05;;;;;;;8.63;3.38;;;;;;;8.57;81.04;93265.72;5072242;28;20473;-87
2021/01/22 10:33:31;;;;;;;;;;;;;;;8.64;80.84;93263.16;5072578;28;20051;-87
2021/01/22 10:35:57;;;;;;;4.25;1.38;;;;;;;8.46;80.81;93266.28;5062896;28;19940;-87
2021/01/22 10:38:24;;;;;;;7.00;2.83;;;;;;;8.46;81.96;93269.59;5062774;28;20048;-88
2021/01/22 10:40:50;;;;;;;;;;;;;;;8.50;81.27;93268.25;5065569;28;20083;-86
2021/01/22 10:43:16;;;;;;;5.10;2.30;;;;;;;8.42;81.68;93261.53;5060395;28;20315;-87
2021/01/22 10:45:43;;;;;;;;;;;;;;;8.47;81.07;93253.25;5062184;28;20056;-87
2021/01/22 10:48:10;;;;;;;7.45;2.28;;;;;;;8.55;81.53;93242.06;5061531;28;19931;-86
2021/01/22 10:50:36;;;;;;;7.43;2.40;;;;;;;8.60;81.58;93237.16;5059810;28;20056;-88
2021/01/22 10:53:03;;;;;;;8.23;3.60;;;;;;;8.69;80.88;93232.63;5062910;28;20036;-86
2021/01/22 10:55:29;;;;;;;7.47;2.65;;;;;;;8.69;81.40;93214.69;5062622;28;20048;-88
2021/01/22 10:57:55;;;;;;;4.80;2.67;;;;;;;8.87;80.49;93223.56;5059724;28;20052;-87
2021/01/22 11:00:22;;;;;;;7.40;2.35;;;;;;;8.90;80.69;93221.41;5060366;28;20416;-87
2021/01/22 11:02:49;;;;;;;6.25;2.45;;;;;;;9.02;80.19;93203.63;5062082;28;20045;-87
2021/01/22 11:05:16;;;;;;;10.75;4.88;;;;;;;9.12;80.29;93194.75;5060228;28;20390;-85
2021/01/22 11:07:42;;;;;;;12.65;4.07;;;;;;;8.96;79.86;93194.19;5061796;28;20052;-87
2021/01/22 11:10:09;;;;;;;11.35;4.95;;;;;;;9.07;79.84;93195.34;5065605;28;20105;-87
2021/01/22 11:12:35;;;;;;;11.82;4.30;;;;;;;9.04;80.19;93193.19;5071105;28;20052;-87
2021/01/22 11:15:01;;;;;;;10.23;4.72;;;;;;;9.00;79.45;93180.00;5071468;28;20075;-89
2021/01/22 11:17:27;;;;;;;10.98;3.88;;;;;;;8.90;79.54;93165.06;5067847;28;20040;-87
2021/01/22 11:19:54;;;;;;;13.35;4.10;;;;;;;9.00;79.73;93166.38;5071093;28;20106;-86
2021/01/22 11:22:21;;;;;;;8.95;3.95;;;;;;;9.08;79.26;93174.66;5071043;28;20044;-87
2021/01/22 11:24:47;;;;;;;6.57;3.35;;;;;;;9.12;79.13;93172.47;5069998;28;20503;-87
2021/01/22 11:27:13;;;;;;;5.40;2.40;;;;;;;9.20;78.44;93168.91;5070756;28;20056;-85
2021/01/22 11:29:39;;;;;;;9.20;4.72;;;;;;;9.19;79.03;93170.69;5071169;28;20049;-87
2021/01/22 11:32:06;;;;;;;5.15;2.55;;;;;;;9.26;78.52;93157.06;5070911;28;20048;-87
2021/01/22 11:34:33;;;;;;;6.45;3.03;;;;;;;9.33;78.67;93157.81;5072263;28;20086;-87
2021/01/22 11:37:00;;;;;;;6.45;3.05;;;;;;;9.33;78.20;93158.63;5050813;28;20568;-86
2021/01/22 11:39:26;;;;;;;5.97;2.28;;;;;;;9.34;78.32;93152.50;5050793;28;20045;-88
2021/01/22 11:41:53;;;;;;;3.80;2.05;;;;;;;9.28;78.38;93145.63;5050762;28;20052;-87
2021/01/22 11:44:19;;;;;;;;;;;;;;;9.37;77.67;93151.31;5051400;28;20045;-87
2021/01/22 11:46:45;;;;;;;5.18;2.40;;;;;;;9.25;77.31;93128.06;5050806;28;20313;-88
2021/01/22 11:49:11;;;;;;;3.95;1.95;;;;;;;9.37;77.75;93143.63;5050732;28;20056;-87
2021/01/22 11:51:38;;;;;;;7.20;2.58;;;;;;;9.43;77.53;93145.38;5050886;28;20057;-88